Terminal Aerodrome Forecast
Issued by NWS

Home | Current Version | Previous Version | Text Only | Print | Product List | Glossary Off
Versions: 1 2 3 4 5 6 7 8 9 10 11 12

000
FTUS42 KMHX 241700 RRA
TAFOAJ
TAF
KOAJ 241741Z 2418/2518 27009G18KT P6SM VCSH BKN015
     FM242200 28007KT P6SM BKN035
     FM250000 26004KT P6SM SKC
      AMD LTD TO CLD VIS AND WIND=

USA.gov is the U.S. government's official web portal to all federal, state and local government web resources and services.